Time;durP1;ratioP1;P1;durP2;ratioP2;P2;SDS_P1;SDS_P2;PMS_P1;PMS_P2;Temp;Humidity;BMP_temperature;BMP_pressure;BME280_temperature;BME280_humidity;BME280_pressure;Samples;Min_cycle;Max_cycle;Signal;HPM_P1;HPM_P2
2024/04/26 00:01:23;;;;;;;5.78;3.90;;;23.80;44.30;;;;;;6605491;26;80028;-66
2024/04/26 00:04:23;;;;;;;6.93;4.30;;;23.80;44.30;;;;;;6626360;26;79607;-65
2024/04/26 00:07:24;;;;;;;5.82;3.92;;;23.80;44.20;;;;;;6624459;26;79109;-66
2024/04/26 00:10:25;;;;;;;5.63;4.03;;;23.80;44.20;;;;;;6587000;26;78823;-65
2024/04/26 00:13:25;;;;;;;6.95;4.35;;;23.80;44.20;;;;;;6613831;26;79131;-65
2024/04/26 00:16:26;;;;;;;6.10;3.97;;;23.80;44.20;;;;;;6603220;26;78721;-67
2024/04/26 00:19:26;;;;;;;6.68;4.03;;;23.80;44.20;;;;;;6595772;26;79082;-67
2024/04/26 00:22:27;;;;;;;4.95;3.65;;;23.80;44.60;;;;;;6557678;26;79147;-66
2024/04/26 00:25:27;;;;;;;5.40;3.65;;;23.80;44.50;;;;;;6538853;26;79270;-67
2024/04/26 00:28:28;;;;;;;4.88;2.90;;;23.80;44.60;;;;;;6539017;26;80341;-67
2024/04/26 00:31:28;;;;;;;5.60;3.67;;;23.80;44.90;;;;;;6541165;26;80213;-67
2024/04/26 00:34:29;;;;;;;4.65;3.60;;;23.80;44.80;;;;;;6540413;26;78990;-67
2024/04/26 00:37:29;;;;;;;5.22;3.50;;;23.80;44.70;;;;;;6539829;26;80636;-69
2024/04/26 00:40:32;;;;;;;4.78;3.42;;;23.80;44.70;;;;;;6540101;26;80084;-69
2024/04/26 00:43:32;;;;;;;5.30;3.67;;;23.80;44.90;;;;;;6540797;26;82056;-69
2024/04/26 00:46:33;;;;;;;5.25;3.65;;;23.80;44.70;;;;;;6540006;26;78852;-69
2024/04/26 00:49:35;;;;;;;5.63;3.83;;;23.80;44.70;;;;;;6539702;26;80050;-68
2024/04/26 00:52:36;;;;;;;6.40;3.88;;;23.80;44.50;;;;;;6539808;26;80105;-68
2024/04/26 00:55:36;;;;;;;7.45;4.22;;;23.80;44.10;;;;;;6540627;26;79879;-68
2024/04/26 00:58:37;;;;;;;6.28;4.30;;;23.70;43.90;;;;;;6563154;26;79033;-68
2024/04/26 01:01:37;;;;;;;6.05;4.10;;;23.70;44.00;;;;;;6539681;26;78976;-66
2024/04/26 01:04:38;;;;;;;6.72;4.45;;;23.80;44.00;;;;;;6561179;26;79126;-67
2024/04/26 01:07:38;;;;;;;6.63;4.13;;;23.70;43.80;;;;;;6540351;26;79671;-67
2024/04/26 01:10:39;;;;;;;6.40;4.03;;;23.70;43.90;;;;;;6541721;26;79079;-66
2024/04/26 01:13:39;;;;;;;6.20;4.50;;;23.70;43.90;;;;;;6540330;26;80576;-57
2024/04/26 01:16:40;;;;;;;6.70;4.20;;;23.70;43.80;;;;;;6570027;26;80401;-59
2024/04/26 01:19:40;;;;;;;7.85;5.07;;;23.70;43.90;;;;;;6551721;26;79851;-58
2024/04/26 01:22:41;;;;;;;5.38;3.75;;;23.70;43.90;;;;;;6538609;26;78913;-58
2024/04/26 01:25:42;;;;;;;6.05;4.05;;;23.70;44.00;;;;;;6539872;26;78775;-58
2024/04/26 01:28:42;;;;;;;5.72;3.88;;;23.70;43.90;;;;;;6539635;26;79775;-57
2024/04/26 01:31:43;;;;;;;6.72;4.40;;;23.70;44.00;;;;;;6568472;26;79068;-56
2024/04/26 01:34:43;;;;;;;9.10;4.70;;;23.70;44.00;;;;;;6595673;26;79240;-58
2024/04/26 01:37:44;;;;;;;6.50;4.47;;;23.70;43.90;;;;;;6602864;26;79919;-58
2024/04/26 01:40:44;;;;;;;5.00;4.10;;;23.70;43.80;;;;;;6595174;26;79221;-58
2024/04/26 01:43:45;;;;;;;6.00;4.00;;;23.70;43.70;;;;;;6594609;26;79017;-58
2024/04/26 01:46:45;;;;;;;7.72;4.38;;;23.70;43.70;;;;;;6587517;26;79381;-59
2024/04/26 01:49:46;;;;;;;6.85;4.68;;;23.70;43.60;;;;;;6609144;26;79432;-59
2024/04/26 01:52:46;;;;;;;5.95;3.80;;;23.60;43.60;;;;;;6597557;26;79235;-58
2024/04/26 01:55:47;;;;;;;8.02;4.32;;;23.70;43.60;;;;;;6581656;26;79212;-59
2024/04/26 01:58:47;;;;;;;6.13;4.25;;;23.70;43.80;;;;;;6592373;26;80484;-59
2024/04/26 02:01:48;;;;;;;6.05;3.92;;;23.70;43.80;;;;;;6574733;26;79131;-58
2024/04/26 02:04:48;;;;;;;5.97;3.80;;;23.70;43.70;;;;;;6580635;26;80105;-58
2024/04/26 02:07:49;;;;;;;6.60;4.38;;;23.70;43.80;;;;;;6571431;26;80501;-67
2024/04/26 02:10:49;;;;;;;7.30;4.53;;;23.70;43.70;;;;;;6578392;26;80443;-67
2024/04/26 02:13:50;;;;;;;7.07;3.90;;;23.70;43.90;;;;;;6578577;26;79176;-68
2024/04/26 02:16:50;;;;;;;6.53;4.28;;;23.70;43.80;;;;;;6581690;26;79350;-67
2024/04/26 02:19:51;;;;;;;5.88;4.15;;;23.70;43.90;;;;;;6570181;26;78932;-64
2024/04/26 02:22:51;;;;;;;7.05;4.15;;;23.70;43.80;;;;;;6573347;26;84640;-64
2024/04/26 02:25:52;;;;;;;4.75;3.55;;;23.70;43.80;;;;;;6559264;26;78850;-58
2024/04/26 02:28:53;;;;;;;8.10;4.60;;;23.70;44.10;;;;;;6540214;26;78951;-56
2024/04/26 02:31:53;;;;;;;7.53;4.50;;;23.70;43.80;;;;;;6563929;26;78875;-58
2024/04/26 02:34:54;;;;;;;9.52;5.10;;;23.70;43.90;;;;;;6561908;26;80586;-58
2024/04/26 02:37:54;;;;;;;6.00;3.55;;;23.70;43.80;;;;;;6550638;26;79017;-58
2024/04/26 02:40:55;;;;;;;7.25;4.28;;;23.70;43.90;;;;;;6566264;26;80020;-58
2024/04/26 02:43:55;;;;;;;6.53;4.05;;;23.60;43.90;;;;;;6567698;26;79459;-65
2024/04/26 02:46:56;;;;;;;6.32;4.03;;;23.70;43.80;;;;;;6547962;26;79998;-66
2024/04/26 02:49:57;;;;;;;7.20;3.72;;;23.70;43.70;;;;;;6541842;26;79194;-65
2024/04/26 02:52:57;;;;;;;6.30;4.05;;;23.70;43.70;;;;;;6540087;26;82407;-63
2024/04/26 02:55:58;;;;;;;6.07;4.25;;;23.60;43.60;;;;;;6539072;26;78741;-62
2024/04/26 02:58:58;;;;;;;5.97;3.70;;;23.60;43.50;;;;;;6545831;26;78928;-63
2024/04/26 03:01:59;;;;;;;5.95;4.25;;;23.60;43.60;;;;;;6569036;26;82314;-57
2024/04/26 03:04:59;;;;;;;6.07;3.65;;;23.60;43.50;;;;;;6607211;26;79299;-57
2024/04/26 03:08:00;;;;;;;6.07;4.13;;;23.70;43.30;;;;;;6605995;26;81559;-55
2024/04/26 03:11:00;;;;;;;4.78;3.42;;;23.60;43.20;;;;;;6583150;26;79091;-57
2024/04/26 03:14:01;;;;;;;6.53;4.07;;;23.60;43.20;;;;;;6571009;26;78971;-56
2024/04/26 03:17:01;;;;;;;6.18;4.15;;;23.60;43.20;;;;;;6613756;26;79001;-58
2024/04/26 03:20:02;;;;;;;6.38;3.85;;;23.60;43.20;;;;;;6631929;26;79772;-55
2024/04/26 03:23:03;;;;;;;8.02;3.42;;;23.60;43.20;;;;;;6568835;26;81741;-57
2024/04/26 03:26:03;;;;;;;6.22;4.07;;;23.60;43.10;;;;;;6553259;26;79424;-57
2024/04/26 03:29:04;;;;;;;5.95;3.80;;;23.60;43.20;;;;;;6547978;26;82105;-56
2024/04/26 03:32:04;;;;;;;6.68;4.15;;;23.60;43.10;;;;;;6564108;26;79499;-57
2024/04/26 03:35:05;;;;;;;5.30;4.03;;;23.60;43.20;;;;;;6618041;26;80255;-59
2024/04/26 03:38:06;;;;;;;5.82;3.70;;;23.60;43.10;;;;;;6568866;26;82153;-59
2024/04/26 03:41:06;;;;;;;7.88;4.70;;;23.60;43.20;;;;;;6549410;26;79701;-67
2024/04/26 03:44:07;;;;;;;8.30;4.95;;;23.60;43.30;;;;;;6557885;26;79328;-66
2024/04/26 03:47:07;;;;;;;5.38;3.85;;;23.60;43.10;;;;;;6577836;26;81047;-68
2024/04/26 03:50:08;;;;;;;7.82;4.40;;;23.50;42.90;;;;;;6550078;26;78983;-68
2024/04/26 03:53:09;;;;;;;8.52;4.80;;;23.50;42.70;;;;;;6570051;26;79344;-70
2024/04/26 03:56:09;;;;;;;7.38;4.18;;;23.50;42.80;;;;;;6607383;26;78822;-66
2024/04/26 03:59:10;;;;;;;6.97;4.68;;;23.50;42.90;;;;;;6599907;26;79103;-62
2024/04/26 04:02:10;;;;;;;7.28;4.90;;;23.50;42.80;;;;;;6580944;26;78779;-62
2024/04/26 04:05:11;;;;;;;7.63;4.45;;;23.50;42.80;;;;;;6606416;26;78981;-60
2024/04/26 04:08:12;;;;;;;6.57;4.38;;;23.50;42.70;;;;;;6585884;26;79463;-61
2024/04/26 04:11:12;;;;;;;7.15;4.47;;;23.50;43.00;;;;;;6580956;26;79285;-58
2024/04/26 04:14:13;;;;;;;9.15;4.70;;;23.50;43.10;;;;;;6553645;26;78840;-58
2024/04/26 04:17:15;;;;;;;14.35;4.63;;;23.50;42.90;;;;;;6558585;26;79107;-66
2024/04/26 04:20:15;;;;;;;8.05;4.75;;;23.50;43.40;;;;;;6581405;26;78737;-65
2024/04/26 04:23:16;;;;;;;14.15;5.10;;;23.60;43.50;;;;;;6606979;26;79589;-63
2024/04/26 04:26:16;;;;;;;7.50;4.43;;;23.60;43.30;;;;;;6561455;26;79599;-62
2024/04/26 04:29:17;;;;;;;13.88;5.28;;;23.60;43.40;;;;;;6590584;26;80007;-62
2024/04/26 04:32:17;;;;;;;14.02;5.95;;;23.60;43.20;;;;;;6561016;26;81018;-62
2024/04/26 04:35:18;;;;;;;12.70;5.00;;;23.50;43.10;;;;;;6574459;26;80237;-69
2024/04/26 04:38:18;;;;;;;9.60;5.00;;;23.50;43.10;;;;;;6586898;26;80134;-68
2024/04/26 04:41:19;;;;;;;14.73;5.10;;;23.50;43.10;;;;;;6595071;26;82370;-68
2024/04/26 04:44:20;;;;;;;9.85;5.32;;;23.50;43.00;;;;;;6572899;26;79517;-66
2024/04/26 04:47:20;;;;;;;10.50;4.38;;;23.50;43.00;;;;;;6554262;26;83892;-69
2024/04/26 04:50:21;;;;;;;7.15;4.53;;;23.50;43.20;;;;;;6582216;26;83847;-69
2024/04/26 04:53:21;;;;;;;14.48;5.25;;;23.50;43.30;;;;;;6572977;26;80225;-62
2024/04/26 04:56:22;;;;;;;14.27;4.80;;;23.50;43.20;;;;;;6580085;26;80064;-60
2024/04/26 04:59:22;;;;;;;15.80;4.80;;;23.50;43.30;;;;;;6578309;26;79081;-61
2024/04/26 05:02:23;;;;;;;11.25;5.75;;;23.50;43.20;;;;;;6580931;26;81433;-62
2024/04/26 05:05:23;;;;;;;10.95;5.00;;;23.60;43.20;;;;;;6570794;26;79216;-60
2024/04/26 05:08:24;;;;;;;10.63;5.82;;;23.50;43.20;;;;;;6555549;26;79261;-57
2024/04/26 05:11:25;;;;;;;16.02;5.95;;;23.50;43.30;;;;;;6559766;26;86923;-57
2024/04/26 05:14:25;;;;;;;16.85;5.93;;;23.60;43.10;;;;;;6562360;26;80231;-55
2024/04/26 05:17:26;;;;;;;11.85;5.45;;;23.50;43.00;;;;;;6568712;26;84032;-57
2024/04/26 05:20:26;;;;;;;12.80;5.40;;;23.50;43.00;;;;;;6574095;26;79005;-58
2024/04/26 05:23:27;;;;;;;8.30;4.53;;;23.50;43.10;;;;;;6575188;26;80871;-58
2024/04/26 05:26:27;;;;;;;14.00;6.32;;;23.50;43.10;;;;;;6561568;26;78549;-58
2024/04/26 05:29:28;;;;;;;10.60;6.05;;;23.60;43.20;;;;;;6562555;26;79478;-58
2024/04/26 05:32:28;;;;;;;11.40;5.65;;;23.60;43.20;;;;;;6565748;26;79434;-61
2024/04/26 05:35:29;;;;;;;11.32;6.22;;;23.60;43.30;;;;;;6586273;26;79587;-60
2024/04/26 05:38:29;;;;;;;11.02;5.72;;;23.60;43.30;;;;;;6603678;26;79674;-60
2024/04/26 05:41:31;;;;;;;11.32;5.53;;;23.60;43.30;;;;;;6588343;26;80934;-59
2024/04/26 05:44:32;;;;;;;11.27;5.63;;;23.60;43.20;;;;;;6581531;26;79048;-59
2024/04/26 05:47:32;;;;;;;11.40;5.78;;;23.60;43.20;;;;;;6594588;26;79242;-61
2024/04/26 05:50:33;;;;;;;12.20;5.80;;;23.60;43.80;;;;;;6575761;26;80117;-59
2024/04/26 05:53:33;;;;;;;8.68;5.30;;;23.60;43.10;;;;;;6590723;26;79077;-60
2024/04/26 05:56:34;;;;;;;11.30;4.72;;;23.60;43.10;;;;;;6585129;26;86779;-60
2024/04/26 05:59:34;;;;;;;9.18;5.32;;;23.70;43.20;;;;;;6578673;26;79252;-58
2024/04/26 06:02:35;;;;;;;10.77;5.30;;;23.60;43.20;;;;;;6568126;26;80199;-60
2024/04/26 06:05:36;;;;;;;9.45;5.00;;;23.60;43.30;;;;;;6571356;26;81059;-59
2024/04/26 06:08:36;;;;;;;7.95;4.38;;;23.60;43.20;;;;;;6582408;26;80049;-48
2024/04/26 06:11:37;;;;;;;10.82;4.75;;;23.70;43.30;;;;;;6599496;26;79423;-57
2024/04/26 06:14:37;;;;;;;7.60;4.22;;;23.70;43.40;;;;;;6575599;26;79895;-58
2024/04/26 06:17:38;;;;;;;6.57;4.18;;;23.70;43.50;;;;;;6582714;26;79004;-57
2024/04/26 06:20:38;;;;;;;19.65;9.95;;;23.70;43.40;;;;;;6608401;26;81428;-54
2024/04/26 06:23:39;;;;;;;133.07;57.58;;;23.70;43.30;;;;;;6623948;26;80227;-53
2024/04/26 06:26:39;;;;;;;198.00;87.95;;;23.80;43.30;;;;;;6564375;26;86231;-60
2024/04/26 06:29:41;;;;;;;246.63;108.63;;;23.80;43.40;;;;;;6610512;26;81784;-61
2024/04/26 06:32:42;;;;;;;264.25;112.88;;;23.80;43.60;;;;;;6552409;26;84055;-60
2024/04/26 06:35:45;;;;;;;260.15;115.45;;;23.80;43.60;;;;;;6559595;26;85803;-59
2024/04/26 06:38:46;;;;;;;232.07;99.53;;;23.80;43.40;;;;;;6595647;26;83942;-61
2024/04/26 06:41:46;;;;;;;205.35;85.80;;;23.80;43.60;;;;;;6615272;26;84084;-58
2024/04/26 06:44:47;;;;;;;199.00;85.97;;;23.80;43.60;;;;;;6550549;26;84364;-59
2024/04/26 06:47:48;;;;;;;176.55;79.28;;;23.80;43.60;;;;;;6551801;26;82610;-59
2024/04/26 06:50:49;;;;;;;165.38;71.78;;;23.80;43.60;;;;;;6558982;26;86823;-59
2024/04/26 06:53:50;;;;;;;135.82;55.72;;;23.80;43.50;;;;;;6554873;26;81756;-58
2024/04/26 06:56:50;;;;;;;120.38;52.08;;;23.80;43.50;;;;;;6555209;26;81911;-57
2024/04/26 06:59:51;;;;;;;101.57;45.08;;;23.80;43.70;;;;;;6572111;26;81923;-58
2024/04/26 07:02:51;;;;;;;100.85;39.33;;;23.80;43.80;;;;;;6545173;26;81424;-61
2024/04/26 07:05:52;;;;;;;110.22;37.45;;;23.90;44.00;;;;;;6553729;26;81787;-61
2024/04/26 07:08:52;;;;;;;109.63;33.40;;;23.90;44.20;;;;;;6577311;26;81332;-61
2024/04/26 07:11:53;;;;;;;79.20;27.73;;;23.90;44.20;;;;;;6560235;26;83999;-61
2024/04/26 07:14:53;;;;;;;89.57;27.58;;;24.00;44.30;;;;;;6559819;26;83413;-60
2024/04/26 07:17:54;;;;;;;88.55;23.02;;;24.00;44.40;;;;;;6611107;26;83363;-60
2024/04/26 07:20:56;;;;;;;84.25;24.20;;;24.00;44.40;;;;;;6587654;26;82807;-55
2024/04/26 07:23:57;;;;;;;74.00;21.00;;;23.90;44.20;;;;;;6594275;26;83155;-57
2024/04/26 07:26:57;;;;;;;53.90;18.73;;;24.00;44.30;;;;;;6557629;26;82370;-57
2024/04/26 07:29:58;;;;;;;58.45;19.25;;;24.00;44.00;;;;;;6591795;26;85050;-54
2024/04/26 07:32:58;;;;;;;56.63;16.83;;;24.00;44.10;;;;;;6557956;26;81850;-55
2024/04/26 07:35:59;;;;;;;44.53;14.73;;;24.00;44.20;;;;;;6572099;26;83043;-56
2024/04/26 07:38:59;;;;;;;33.42;12.65;;;24.00;44.20;;;;;;6585106;26;83131;-69
2024/04/26 07:42:02;;;;;;;39.38;15.38;;;24.00;44.00;;;;;;6586329;26;81897;-70
2024/04/26 07:45:02;;;;;;;30.95;12.10;;;24.00;44.10;;;;;;6582149;26;81805;-67
2024/04/26 07:48:03;;;;;;;32.10;10.32;;;24.00;44.10;;;;;;6578252;26;81808;-69
2024/04/26 07:51:03;;;;;;;15.63;7.93;;;24.00;44.10;;;;;;6563464;26;81741;-67
2024/04/26 07:54:04;;;;;;;17.42;8.13;;;24.00;44.20;;;;;;6580536;26;83017;-68
2024/04/26 07:57:04;;;;;;;18.33;8.13;;;24.10;44.30;;;;;;6561415;26;81228;-55
2024/04/26 08:00:05;;;;;;;18.23;7.95;;;24.10;44.20;;;;;;6589416;26;80572;-54
2024/04/26 08:03:06;;;;;;;13.98;6.97;;;24.10;44.10;;;;;;6550846;26;79472;-56
2024/04/26 08:06:06;;;;;;;13.65;6.72;;;24.10;44.10;;;;;;6599547;26;79409;-54
2024/04/26 08:09:07;;;;;;;14.20;6.03;;;24.10;44.00;;;;;;6619227;26;80419;-55
2024/04/26 08:12:07;;;;;;;13.82;5.95;;;24.20;44.10;;;;;;6618434;26;80097;-55
2024/04/26 08:15:08;;;;;;;17.10;6.30;;;24.20;43.80;;;;;;6583859;26;80304;-57
2024/04/26 08:18:08;;;;;;;11.93;5.20;;;24.20;44.00;;;;;;6598425;26;80096;-57
2024/04/26 08:21:09;;;;;;;12.48;5.45;;;24.20;44.50;;;;;;6622249;26;86108;-58
2024/04/26 08:24:09;;;;;;;11.35;5.63;;;24.20;43.50;;;;;;6612691;26;79055;-57
2024/04/26 08:27:10;;;;;;;10.65;5.50;;;24.20;43.10;;;;;;6551252;26;80557;-57
2024/04/26 08:30:10;;;;;;;9.40;4.18;;;24.20;43.40;;;;;;6566213;26;79328;-56
2024/04/26 08:33:11;;;;;;;11.43;4.78;;;24.30;43.50;;;;;;6584743;26;79053;-59
2024/04/26 08:36:11;;;;;;;11.63;4.93;;;24.30;43.70;;;;;;6571654;26;82960;-58
2024/04/26 08:39:12;;;;;;;12.48;4.75;;;24.30;43.60;;;;;;6570071;26;80091;-59
2024/04/26 08:42:12;;;;;;;9.70;4.43;;;24.30;43.60;;;;;;6556227;26;81550;-58
2024/04/26 08:45:13;;;;;;;9.95;4.40;;;24.40;43.80;;;;;;6566356;26;79934;-60
2024/04/26 08:48:13;;;;;;;12.98;3.97;;;24.40;44.10;;;;;;6564928;26;80704;-60
2024/04/26 08:51:14;;;;;;;12.13;3.80;;;24.40;45.50;;;;;;6548716;26;79219;-73
2024/04/26 08:54:14;;;;;;;7.70;3.38;;;24.40;46.20;;;;;;6565538;26;79401;-68
2024/04/26 08:57:16;;;;;;;8.32;3.53;;;24.40;46.50;;;;;;6541417;26;84407;-71
2024/04/26 09:00:17;;;;;;;4.60;2.40;;;24.30;46.80;;;;;;6563986;26;83506;-70
2024/04/26 09:03:17;;;;;;;8.88;2.33;;;24.30;45.10;;;;;;6544583;26;86177;-70
2024/04/26 09:06:18;;;;;;;10.27;2.22;;;24.20;45.40;;;;;;6590525;26;78942;-70
2024/04/26 09:09:18;;;;;;;15.35;2.83;;;24.10;43.10;;;;;;6570311;26;79305;-72
2024/04/26 09:12:19;;;;;;;10.55;2.55;;;23.90;41.60;;;;;;6549936;26;82462;-69
2024/04/26 09:15:20;;;;;;;6.10;1.88;;;23.90;41.60;;;;;;6553296;26;80064;-72
2024/04/26 09:18:20;;;;;;;7.57;2.20;;;23.90;41.70;;;;;;6577858;26;79879;-72
2024/04/26 09:21:21;;;;;;;8.15;1.73;;;23.80;41.50;;;;;;6575567;26;79867;-71
2024/04/26 09:24:21;;;;;;;7.45;1.50;;;23.80;41.00;;;;;;6603597;26;79149;-70
2024/04/26 09:27:22;;;;;;;4.40;1.52;;;23.80;40.50;;;;;;6558844;26;79468;-69
2024/04/26 09:30:22;;;;;;;11.15;1.77;;;23.80;40.90;;;;;;6599680;26;79513;-58
2024/04/26 09:33:23;;;;;;;12.77;1.70;;;23.70;40.40;;;;;;6552936;26;79546;-59
2024/04/26 09:36:24;;;;;;;9.27;1.60;;;23.70;41.40;;;;;;6568213;26;80314;-58
2024/04/26 09:39:24;;;;;;;4.40;1.55;;;23.70;42.60;;;;;;6594077;26;80569;-58
2024/04/26 09:42:25;;;;;;;4.05;1.30;;;23.70;42.70;;;;;;6585815;26;80103;-58
2024/04/26 09:45:26;;;;;;;9.10;1.50;;;23.70;41.60;;;;;;6620910;26;79002;-58
2024/04/26 09:48:27;;;;;;;4.82;1.20;;;23.60;41.30;;;;;;6582949;26;78747;-69
2024/04/26 09:51:27;;;;;;;10.88;1.92;;;23.60;40.90;;;;;;6623307;26;79161;-69
2024/04/26 09:54:30;;;;;;;15.20;1.75;;;23.60;40.80;;;;;;6573684;26;81871;-68
2024/04/26 09:57:30;;;;;;;14.57;1.65;;;23.60;41.90;;;;;;6543640;26;79528;-71
2024/04/26 10:00:33;;;;;;;13.85;1.75;;;23.60;40.80;;;;;;6601876;26;80086;-69
2024/04/26 10:03:33;;;;;;;11.85;1.90;;;23.60;41.20;;;;;;6590350;26;79490;-68
2024/04/26 10:06:34;;;;;;;6.70;2.13;;;23.60;41.90;;;;;;6575159;26;78959;-57
2024/04/26 10:09:34;;;;;;;9.25;2.20;;;23.60;41.50;;;;;;6580825;26;80208;-56
2024/04/26 10:12:35;;;;;;;21.20;3.80;;;23.50;41.00;;;;;;6571933;26;80362;-58
2024/04/26 10:15:35;;;;;;;13.25;1.45;;;23.50;41.80;;;;;;6584529;26;79746;-58
2024/04/26 10:18:38;;;;;;;11.50;2.30;;;23.50;41.60;;;;;;6549537;26;81715;-57
2024/04/26 10:21:40;;;;;;;13.60;2.78;;;23.60;42.00;;;;;;6553456;26;79847;-58
2024/04/26 10:24:58;;;;;;;5.03;1.48;;;23.50;42.90;;;;;;6561891;26;79003;-55
2024/04/26 10:27:59;;;;;;;4.20;1.80;;;23.60;43.80;;;;;;6584419;26;86229;-58
2024/04/26 10:30:59;;;;;;;6.10;1.90;;;23.60;44.90;;;;;;6583473;26;80597;-57
2024/04/26 10:34:00;;;;;;;6.80;2.05;;;23.60;46.60;;;;;;6552253;26;80713;-59
2024/04/26 10:37:02;;;;;;;26.05;10.02;;;23.70;48.60;;;;;;6574569;26;78880;-58
2024/04/26 10:40:03;;;;;;;118.40;48.28;;;23.70;49.10;;;;;;6588425;26;81187;-58
2024/04/26 10:43:03;;;;;;;287.15;119.50;;;23.70;50.50;;;;;;6581752;26;82725;-68
2024/04/26 10:46:04;;;;;;;512.80;220.43;;;23.80;53.10;;;;;;6571623;26;87320;-67
2024/04/26 10:49:04;;;;;;;721.72;345.35;;;23.80;54.60;;;;;;6578254;26;85627;-69
2024/04/26 10:52:05;;;;;;;757.70;368.00;;;23.80;53.80;;;;;;6577164;26;85154;-66
2024/04/26 10:55:06;;;;;;;774.92;378.95;;;23.80;53.80;;;;;;6587842;26;84198;-69
2024/04/26 10:58:07;;;;;;;714.58;353.60;;;23.80;54.70;;;;;;6594444;26;84181;-68
2024/04/26 11:01:10;;;;;;;683.42;321.08;;;23.80;54.80;;;;;;6584377;26;85000;-56
2024/04/26 11:04:10;;;;;;;640.55;311.92;;;23.80;55.70;;;;;;6571773;26;87509;-57
2024/04/26 11:07:12;;;;;;;644.53;308.50;;;23.80;55.60;;;;;;6570025;26;88503;-57
2024/04/26 11:10:13;;;;;;;586.97;278.40;;;23.80;56.20;;;;;;6563670;26;84899;-57
2024/04/26 11:13:13;;;;;;;535.33;244.05;;;23.80;55.90;;;;;;6571406;26;85640;-57
2024/04/26 11:16:14;;;;;;;492.80;220.05;;;23.80;56.10;;;;;;6596413;26;90677;-59
2024/04/26 11:19:15;;;;;;;494.17;228.10;;;23.80;56.40;;;;;;6617394;25;85383;-56
2024/04/26 11:22:16;;;;;;;444.23;199.23;;;23.90;57.20;;;;;;6590586;26;83988;-57
2024/04/26 11:25:16;;;;;;;431.98;193.00;;;23.80;56.40;;;;;;6562451;26;84111;-57
2024/04/26 11:28:17;;;;;;;402.60;177.73;;;23.80;57.10;;;;;;6568179;26;84127;-58
2024/04/26 11:31:17;;;;;;;368.90;158.77;;;23.90;56.60;;;;;;6592321;26;84110;-55
2024/04/26 11:34:18;;;;;;;360.55;154.82;;;23.90;57.60;;;;;;6590545;26;87803;-55
2024/04/26 11:37:18;;;;;;;315.17;137.68;;;23.90;57.90;;;;;;6593059;26;84938;-57
2024/04/26 11:40:19;;;;;;;279.00;121.57;;;24.00;57.70;;;;;;6576175;26;88131;-57
2024/04/26 11:43:19;;;;;;;241.00;108.95;;;24.00;58.10;;;;;;6577040;26;84136;-59
2024/04/26 11:46:20;;;;;;;231.60;98.13;;;24.00;57.50;;;;;;6602054;26;85344;-58
2024/04/26 11:49:21;;;;;;;220.13;99.47;;;24.00;57.20;;;;;;6579837;26;83682;-57
2024/04/26 11:52:21;;;;;;;164.38;66.85;;;24.00;57.90;;;;;;6577179;26;82070;-58
2024/04/26 11:55:22;;;;;;;85.53;34.03;;;23.90;54.80;;;;;;6582933;26;82160;-56
2024/04/26 11:58:22;;;;;;;70.53;28.15;;;23.80;49.50;;;;;;6553410;26;82019;-57
2024/04/26 12:01:23;;;;;;;48.83;19.90;;;23.70;47.20;;;;;;6562307;26;83101;-57
2024/04/26 12:04:23;;;;;;;37.50;15.60;;;23.60;43.60;;;;;;6567554;26;81494;-56
2024/04/26 12:07:24;;;;;;;35.47;13.60;;;23.60;45.00;;;;;;6557552;26;82088;-56
2024/04/26 12:10:24;;;;;;;23.75;10.60;;;23.50;43.30;;;;;;6559669;26;82538;-56
2024/04/26 12:13:25;;;;;;;19.50;8.02;;;23.40;42.60;;;;;;6557685;26;82559;-60
2024/04/26 12:16:25;;;;;;;28.67;8.00;;;23.30;41.50;;;;;;6555025;26;83175;-61
2024/04/26 12:19:26;;;;;;;17.42;6.43;;;23.20;41.00;;;;;;6550480;26;80029;-61
2024/04/26 12:22:27;;;;;;;22.85;7.63;;;23.20;44.20;;;;;;6590546;26;79042;-61
2024/04/26 12:25:27;;;;;;;22.35;7.57;;;23.30;46.10;;;;;;6566111;26;80140;-59
2024/04/26 12:28:28;;;;;;;16.88;7.03;;;23.40;47.90;;;;;;6613466;26;79304;-61
2024/04/26 12:31:32;;;;;;;15.98;6.90;;;23.50;48.10;;;;;;6601526;26;79086;-63
2024/04/26 12:34:33;;;;;;;26.20;8.23;;;23.50;49.50;;;;;;6585662;26;82364;-57
2024/04/26 12:37:34;;;;;;;19.75;6.75;;;23.60;48.60;;;;;;6593117;26;79363;-58
2024/04/26 12:40:34;;;;;;;13.75;6.75;;;23.70;49.80;;;;;;6595635;26;79347;-57
2024/04/26 12:43:35;;;;;;;21.25;6.80;;;23.70;50.10;;;;;;6576978;26;80778;-60
2024/04/26 12:46:35;;;;;;;21.77;8.27;;;23.80;51.10;;;;;;6582116;26;79370;-55
2024/04/26 12:49:36;;;;;;;18.10;7.60;;;23.80;52.20;;;;;;6596959;26;80203;-66
2024/04/26 12:52:36;;;;;;;17.48;7.80;;;23.80;53.30;;;;;;6587294;26;80367;-57
2024/04/26 12:55:37;;;;;;;17.58;7.38;;;23.90;54.60;;;;;;6589666;26;79062;-57
2024/04/26 12:58:37;;;;;;;22.52;9.82;;;24.00;54.30;;;;;;6578248;26;80473;-56
2024/04/26 13:01:38;;;;;;;28.25;8.95;;;24.00;55.10;;;;;;6579580;26;79273;-57
2024/04/26 13:04:38;;;;;;;26.13;9.70;;;24.00;55.30;;;;;;6598102;26;80687;-56
2024/04/26 13:07:39;;;;;;;32.75;10.23;;;24.00;55.90;;;;;;6583574;26;78910;-53
2024/04/26 13:10:40;;;;;;;35.53;11.45;;;24.00;56.40;;;;;;6592773;26;81974;-56
2024/04/26 13:13:40;;;;;;;29.33;9.93;;;24.10;57.00;;;;;;6561070;26;82690;-53
2024/04/26 13:16:41;;;;;;;25.95;9.20;;;24.10;57.20;;;;;;6580535;26;83384;-55
2024/04/26 13:19:41;;;;;;;23.70;9.20;;;24.10;57.50;;;;;;6583827;26;79105;-53
2024/04/26 13:22:42;;;;;;;30.48;8.45;;;24.10;57.80;;;;;;6569576;26;83769;-55
2024/04/26 13:25:42;;;;;;;27.75;8.52;;;24.20;57.70;;;;;;6584017;26;78917;-53
2024/04/26 13:28:43;;;;;;;24.55;8.70;;;24.10;57.90;;;;;;6602823;26;80688;-62
2024/04/26 13:31:43;;;;;;;30.67;8.23;;;24.20;57.60;;;;;;6572362;26;79058;-62
2024/04/26 13:34:44;;;;;;;22.15;7.45;;;24.20;57.60;;;;;;6576938;26;78574;-61
2024/04/26 13:37:44;;;;;;;15.20;7.20;;;24.20;57.20;;;;;;6568570;26;78960;-63
2024/04/26 13:40:46;;;;;;;23.83;7.03;;;24.20;57.40;;;;;;6557063;26;79899;-62
2024/04/26 13:43:46;;;;;;;19.10;6.78;;;24.20;57.70;;;;;;6593715;26;84449;-64
2024/04/26 13:46:47;;;;;;;18.33;7.05;;;24.20;57.50;;;;;;6592402;26;79659;-63
2024/04/26 13:49:47;;;;;;;20.98;7.18;;;24.20;57.60;;;;;;6589809;26;78871;-64
2024/04/26 13:52:48;;;;;;;18.60;7.40;;;24.20;57.90;;;;;;6583107;26;79745;-66
2024/04/26 13:55:48;;;;;;;19.17;6.88;;;24.20;57.70;;;;;;6566905;26;79040;-62
2024/04/26 13:58:49;;;;;;;19.50;6.13;;;24.10;58.10;;;;;;6601938;26;78688;-61
2024/04/26 14:01:49;;;;;;;17.05;6.70;;;24.10;58.10;;;;;;6588985;26;78955;-61
2024/04/26 14:04:51;;;;;;;17.30;6.03;;;24.10;58.00;;;;;;6597946;26;81306;-61
2024/04/26 14:07:51;;;;;;;12.45;4.57;;;24.10;59.00;;;;;;6597227;26;79406;-68
2024/04/26 14:10:52;;;;;;;15.35;5.10;;;24.10;57.90;;;;;;6603919;26;79097;-69
2024/04/26 14:13:52;;;;;;;17.60;5.15;;;24.10;58.00;;;;;;6579826;26;79057;-68
2024/04/26 14:16:53;;;;;;;14.57;4.95;;;24.10;58.30;;;;;;6580474;26;79954;-67
2024/04/26 14:19:54;;;;;;;11.02;4.45;;;24.20;58.30;;;;;;6578017;26;79111;-67
2024/04/26 14:22:54;;;;;;;16.00;4.80;;;24.20;58.20;;;;;;6609197;26;80096;-56
2024/04/26 14:25:56;;;;;;;15.27;5.78;;;24.10;58.10;;;;;;6589082;26;78582;-58
2024/04/26 14:28:56;;;;;;;7.03;3.75;;;24.10;57.50;;;;;;6604985;26;78811;-57
2024/04/26 14:31:57;;;;;;;16.00;4.80;;;24.10;57.60;;;;;;6576892;26;78923;-57
2024/04/26 14:34:58;;;;;;;8.60;3.20;;;24.10;57.50;;;;;;6577285;26;79294;-57
2024/04/26 14:37:58;;;;;;;10.13;4.55;;;24.10;58.10;;;;;;6591387;26;80218;-58
2024/04/26 14:40:59;;;;;;;13.23;3.92;;;24.10;57.90;;;;;;6555650;26;80028;-56
2024/04/26 14:43:59;;;;;;;12.93;4.20;;;24.10;58.00;;;;;;6577433;26;79157;-56
2024/04/26 14:47:00;;;;;;;9.48;3.90;;;24.00;58.10;;;;;;6621835;26;84484;-57
2024/04/26 14:50:00;;;;;;;7.82;3.47;;;24.00;58.30;;;;;;6625810;26;79381;-57
2024/04/26 14:53:01;;;;;;;7.93;3.15;;;24.00;58.60;;;;;;6578163;26;80906;-56
2024/04/26 14:56:01;;;;;;;8.18;3.38;;;24.00;58.20;;;;;;6600087;26;79515;-57
2024/04/26 14:59:02;;;;;;;10.65;3.47;;;24.00;58.40;;;;;;6592622;26;79148;-66
2024/04/26 15:02:02;;;;;;;8.80;3.38;;;24.00;58.60;;;;;;6586507;26;79108;-66
2024/04/26 15:05:03;;;;;;;6.65;2.78;;;24.00;58.40;;;;;;6578880;26;79142;-66
2024/04/26 15:08:03;;;;;;;6.50;3.35;;;24.00;58.50;;;;;;6584888;26;79027;-66
2024/04/26 15:11:04;;;;;;;11.57;3.30;;;24.00;58.40;;;;;;6598782;26;84520;-65
2024/04/26 15:14:04;;;;;;;6.05;2.78;;;24.00;58.80;;;;;;6589350;25;79061;-65
2024/04/26 15:17:05;;;;;;;7.53;3.30;;;24.00;59.00;;;;;;6559490;26;79395;-68
2024/04/26 15:20:06;;;;;;;5.03;2.75;;;24.00;58.90;;;;;;6538936;26;80744;-66
2024/04/26 15:23:06;;;;;;;6.38;2.63;;;24.00;59.00;;;;;;6554821;26;79287;-69
2024/04/26 15:26:07;;;;;;;6.10;2.95;;;24.00;58.70;;;;;;6550346;26;81168;-69
2024/04/26 15:29:08;;;;;;;6.38;2.60;;;24.00;58.40;;;;;;6599971;26;79717;-67